sensor_id;sensor_type;location;lat;lon;timestamp;P1;durP1;ratioP1;P2;durP2;ratioP2
11006;SDS011;8186;57.652;11.968;2023-03-31T00:01:04;0.20;;;0.20;;
11006;SDS011;8186;57.652;11.968;2023-03-31T00:03:32;0.20;;;0.20;;
11006;SDS011;8186;57.652;11.968;2023-03-31T00:06:02;0.27;;;0.27;;
11006;SDS011;8186;57.652;11.968;2023-03-31T00:08:30;0.30;;;0.30;;
11006;SDS011;8186;57.652;11.968;2023-03-31T00:11:00;0.20;;;0.20;;
11006;SDS011;8186;57.652;11.968;2023-03-31T00:13:28;0.50;;;0.20;;
11006;SDS011;8186;57.652;11.968;2023-03-31T00:15:56;0.10;;;0.10;;
11006;SDS011;8186;57.652;11.968;2023-03-31T00:18:24;0.10;;;0.10;;
11006;SDS011;8186;57.652;11.968;2023-03-31T00:20:52;0.20;;;0.20;;
11006;SDS011;8186;57.652;11.968;2023-03-31T00:23:21;0.17;;;0.17;;
11006;SDS011;8186;57.652;11.968;2023-03-31T00:25:52;0.20;;;0.20;;
11006;SDS011;8186;57.652;11.968;2023-03-31T00:28:19;0.20;;;0.20;;
11006;SDS011;8186;57.652;11.968;2023-03-31T00:30:46;0.20;;;0.20;;
11006;SDS011;8186;57.652;11.968;2023-03-31T00:33:13;0.10;;;0.10;;
11006;SDS011;8186;57.652;11.968;2023-03-31T00:35:40;0.27;;;0.27;;
11006;SDS011;8186;57.652;11.968;2023-03-31T00:38:09;0.20;;;0.20;;
11006;SDS011;8186;57.652;11.968;2023-03-31T00:40:43;0.30;;;0.30;;
11006;SDS011;8186;57.652;11.968;2023-03-31T00:43:17;0.20;;;0.20;;
11006;SDS011;8186;57.652;11.968;2023-03-31T00:45:50;0.30;;;0.20;;
11006;SDS011;8186;57.652;11.968;2023-03-31T00:48:19;0.40;;;0.20;;
11006;SDS011;8186;57.652;11.968;2023-03-31T00:50:50;0.43;;;0.30;;
11006;SDS011;8186;57.652;11.968;2023-03-31T00:53:20;0.20;;;0.20;;
11006;SDS011;8186;57.652;11.968;2023-03-31T00:55:50;1.07;;;0.20;;
11006;SDS011;8186;57.652;11.968;2023-03-31T00:58:20;0.20;;;0.20;;
11006;SDS011;8186;57.652;11.968;2023-03-31T01:00:52;0.27;;;0.27;;
11006;SDS011;8186;57.652;11.968;2023-03-31T01:03:21;0.20;;;0.20;;
11006;SDS011;8186;57.652;11.968;2023-03-31T01:05:49;0.20;;;0.20;;
11006;SDS011;8186;57.652;11.968;2023-03-31T01:08:19;0.63;;;0.30;;
11006;SDS011;8186;57.652;11.968;2023-03-31T01:10:51;0.20;;;0.20;;
11006;SDS011;8186;57.652;11.968;2023-03-31T01:13:18;0.30;;;0.30;;
11006;SDS011;8186;57.652;11.968;2023-03-31T01:15:46;0.20;;;0.20;;
11006;SDS011;8186;57.652;11.968;2023-03-31T01:18:13;0.10;;;0.10;;
11006;SDS011;8186;57.652;11.968;2023-03-31T01:20:48;0.20;;;0.20;;
11006;SDS011;8186;57.652;11.968;2023-03-31T01:23:32;0.17;;;0.17;;
11006;SDS011;8186;57.652;11.968;2023-03-31T01:26:23;0.20;;;0.20;;
11006;SDS011;8186;57.652;11.968;2023-03-31T01:29:03;0.30;;;0.30;;
11006;SDS011;8186;57.652;11.968;2023-03-31T01:31:42;0.20;;;0.20;;
11006;SDS011;8186;57.652;11.968;2023-03-31T01:34:40;0.53;;;0.23;;
11006;SDS011;8186;57.652;11.968;2023-03-31T01:38:03;0.20;;;0.20;;
11006;SDS011;8186;57.652;11.968;2023-03-31T01:40:59;0.20;;;0.20;;
11006;SDS011;8186;57.652;11.968;2023-03-31T01:43:35;0.20;;;0.20;;
11006;SDS011;8186;57.652;11.968;2023-03-31T01:46:08;0.30;;;0.30;;
11006;SDS011;8186;57.652;11.968;2023-03-31T01:48:43;1.13;;;0.30;;
11006;SDS011;8186;57.652;11.968;2023-03-31T01:51:14;0.87;;;0.20;;
11006;SDS011;8186;57.652;11.968;2023-03-31T01:53:46;0.37;;;0.30;;
11006;SDS011;8186;57.652;11.968;2023-03-31T01:56:17;0.20;;;0.20;;
11006;SDS011;8186;57.652;11.968;2023-03-31T01:58:48;0.33;;;0.20;;
11006;SDS011;8186;57.652;11.968;2023-03-31T02:01:19;0.20;;;0.20;;
11006;SDS011;8186;57.652;11.968;2023-03-31T02:03:50;0.27;;;0.20;;
11006;SDS011;8186;57.652;11.968;2023-03-31T02:06:21;0.97;;;0.27;;
11006;SDS011;8186;57.652;11.968;2023-03-31T02:08:53;0.20;;;0.20;;
11006;SDS011;8186;57.652;11.968;2023-03-31T02:11:24;0.30;;;0.30;;
11006;SDS011;8186;57.652;11.968;2023-03-31T02:13:52;0.30;;;0.30;;
11006;SDS011;8186;57.652;11.968;2023-03-31T02:16:21;1.13;;;0.30;;
11006;SDS011;8186;57.652;11.968;2023-03-31T02:18:51;0.30;;;0.30;;
11006;SDS011;8186;57.652;11.968;2023-03-31T02:21:26;0.17;;;0.17;;
11006;SDS011;8186;57.652;11.968;2023-03-31T02:23:53;0.23;;;0.20;;
11006;SDS011;8186;57.652;11.968;2023-03-31T02:26:22;0.20;;;0.20;;
11006;SDS011;8186;57.652;11.968;2023-03-31T02:28:53;0.20;;;0.20;;
11006;SDS011;8186;57.652;11.968;2023-03-31T02:31:22;0.30;;;0.30;;
11006;SDS011;8186;57.652;11.968;2023-03-31T02:33:53;0.20;;;0.20;;
11006;SDS011;8186;57.652;11.968;2023-03-31T02:36:20;0.10;;;0.10;;
11006;SDS011;8186;57.652;11.968;2023-03-31T02:38:48;0.20;;;0.20;;
11006;SDS011;8186;57.652;11.968;2023-03-31T02:41:16;0.30;;;0.30;;
11006;SDS011;8186;57.652;11.968;2023-03-31T02:43:44;0.10;;;0.10;;
11006;SDS011;8186;57.652;11.968;2023-03-31T02:46:11;0.30;;;0.30;;
11006;SDS011;8186;57.652;11.968;2023-03-31T02:48:39;0.50;;;0.20;;
11006;SDS011;8186;57.652;11.968;2023-03-31T02:51:17;0.20;;;0.20;;
11006;SDS011;8186;57.652;11.968;2023-03-31T02:53:58;0.20;;;0.20;;
11006;SDS011;8186;57.652;11.968;2023-03-31T02:56:48;1.27;;;0.40;;
11006;SDS011;8186;57.652;11.968;2023-03-31T02:59:29;0.40;;;0.20;;
11006;SDS011;8186;57.652;11.968;2023-03-31T03:02:06;0.10;;;0.10;;
11006;SDS011;8186;57.652;11.968;2023-03-31T03:04:38;0.20;;;0.20;;
11006;SDS011;8186;57.652;11.968;2023-03-31T03:07:17;0.20;;;0.20;;
11006;SDS011;8186;57.652;11.968;2023-03-31T03:09:49;0.50;;;0.10;;
11006;SDS011;8186;57.652;11.968;2023-03-31T03:12:24;0.20;;;0.20;;
11006;SDS011;8186;57.652;11.968;2023-03-31T03:14:54;1.07;;;0.30;;
11006;SDS011;8186;57.652;11.968;2023-03-31T03:17:25;0.20;;;0.20;;
11006;SDS011;8186;57.652;11.968;2023-03-31T03:19:54;0.77;;;0.27;;
11006;SDS011;8186;57.652;11.968;2023-03-31T03:22:22;0.20;;;0.20;;
11006;SDS011;8186;57.652;11.968;2023-03-31T03:24:49;0.30;;;0.30;;
11006;SDS011;8186;57.652;11.968;2023-03-31T03:27:16;0.63;;;0.30;;
11006;SDS011;8186;57.652;11.968;2023-03-31T03:29:43;0.40;;;0.40;;
11006;SDS011;8186;57.652;11.968;2023-03-31T03:32:13;0.20;;;0.20;;
11006;SDS011;8186;57.652;11.968;2023-03-31T03:34:40;1.13;;;0.40;;
11006;SDS011;8186;57.652;11.968;2023-03-31T03:37:06;0.20;;;0.20;;
11006;SDS011;8186;57.652;11.968;2023-03-31T03:39:33;0.57;;;0.20;;
11006;SDS011;8186;57.652;11.968;2023-03-31T03:42:00;0.30;;;0.30;;
11006;SDS011;8186;57.652;11.968;2023-03-31T03:44:27;0.33;;;0.33;;
11006;SDS011;8186;57.652;11.968;2023-03-31T03:46:54;0.30;;;0.30;;
11006;SDS011;8186;57.652;11.968;2023-03-31T03:49:22;0.40;;;0.40;;
11006;SDS011;8186;57.652;11.968;2023-03-31T03:51:49;0.20;;;0.20;;
11006;SDS011;8186;57.652;11.968;2023-03-31T03:54:17;0.20;;;0.20;;
11006;SDS011;8186;57.652;11.968;2023-03-31T03:56:43;1.37;;;0.20;;
11006;SDS011;8186;57.652;11.968;2023-03-31T03:59:10;0.40;;;0.20;;
11006;SDS011;8186;57.652;11.968;2023-03-31T04:01:37;0.23;;;0.23;;
11006;SDS011;8186;57.652;11.968;2023-03-31T04:04:05;0.50;;;0.30;;
11006;SDS011;8186;57.652;11.968;2023-03-31T04:06:33;0.33;;;0.20;;
11006;SDS011;8186;57.652;11.968;2023-03-31T04:09:00;0.30;;;0.20;;
11006;SDS011;8186;57.652;11.968;2023-03-31T04:11:27;0.30;;;0.30;;
11006;SDS011;8186;57.652;11.968;2023-03-31T04:13:54;0.30;;;0.30;;
11006;SDS011;8186;57.652;11.968;2023-03-31T04:16:21;0.40;;;0.30;;
11006;SDS011;8186;57.652;11.968;2023-03-31T04:18:49;0.20;;;0.20;;
11006;SDS011;8186;57.652;11.968;2023-03-31T04:21:17;0.80;;;0.40;;
11006;SDS011;8186;57.652;11.968;2023-03-31T04:23:49;0.30;;;0.30;;
11006;SDS011;8186;57.652;11.968;2023-03-31T04:26:23;0.80;;;0.17;;
11006;SDS011;8186;57.652;11.968;2023-03-31T04:28:55;2.87;;;0.50;;
11006;SDS011;8186;57.652;11.968;2023-03-31T04:31:24;1.23;;;0.20;;
11006;SDS011;8186;57.652;11.968;2023-03-31T04:33:55;0.33;;;0.33;;
11006;SDS011;8186;57.652;11.968;2023-03-31T04:36:25;0.23;;;0.23;;
11006;SDS011;8186;57.652;11.968;2023-03-31T04:38:54;0.60;;;0.50;;
11006;SDS011;8186;57.652;11.968;2023-03-31T04:41:21;1.63;;;0.30;;
11006;SDS011;8186;57.652;11.968;2023-03-31T04:43:49;0.77;;;0.37;;
11006;SDS011;8186;57.652;11.968;2023-03-31T04:46:16;0.20;;;0.20;;
11006;SDS011;8186;57.652;11.968;2023-03-31T04:48:43;0.20;;;0.20;;
11006;SDS011;8186;57.652;11.968;2023-03-31T04:51:10;0.20;;;0.20;;
11006;SDS011;8186;57.652;11.968;2023-03-31T04:53:39;0.60;;;0.27;;
11006;SDS011;8186;57.652;11.968;2023-03-31T04:56:07;0.30;;;0.20;;
11006;SDS011;8186;57.652;11.968;2023-03-31T04:58:34;0.70;;;0.20;;
11006;SDS011;8186;57.652;11.968;2023-03-31T05:01:01;1.37;;;0.50;;
11006;SDS011;8186;57.652;11.968;2023-03-31T05:03:30;0.20;;;0.20;;
11006;SDS011;8186;57.652;11.968;2023-03-31T05:05:57;0.20;;;0.20;;
11006;SDS011;8186;57.652;11.968;2023-03-31T05:08:24;0.10;;;0.10;;
11006;SDS011;8186;57.652;11.968;2023-03-31T05:10:51;0.30;;;0.30;;
11006;SDS011;8186;57.652;11.968;2023-03-31T05:13:20;0.30;;;0.30;;
11006;SDS011;8186;57.652;11.968;2023-03-31T05:15:46;0.20;;;0.20;;
11006;SDS011;8186;57.652;11.968;2023-03-31T05:18:15;0.57;;;0.30;;
11006;SDS011;8186;57.652;11.968;2023-03-31T05:20:41;0.20;;;0.20;;
11006;SDS011;8186;57.652;11.968;2023-03-31T05:23:08;0.20;;;0.20;;
11006;SDS011;8186;57.652;11.968;2023-03-31T05:25:36;0.40;;;0.27;;
11006;SDS011;8186;57.652;11.968;2023-03-31T05:28:03;0.30;;;0.30;;
11006;SDS011;8186;57.652;11.968;2023-03-31T05:30:32;0.67;;;0.30;;
11006;SDS011;8186;57.652;11.968;2023-03-31T05:32:59;0.33;;;0.30;;
11006;SDS011;8186;57.652;11.968;2023-03-31T05:35:26;0.23;;;0.23;;
11006;SDS011;8186;57.652;11.968;2023-03-31T05:37:54;0.30;;;0.30;;
11006;SDS011;8186;57.652;11.968;2023-03-31T05:40:21;0.40;;;0.30;;
11006;SDS011;8186;57.652;11.968;2023-03-31T05:42:48;0.20;;;0.20;;
11006;SDS011;8186;57.652;11.968;2023-03-31T05:45:15;0.63;;;0.37;;
11006;SDS011;8186;57.652;11.968;2023-03-31T05:47:43;0.20;;;0.20;;
11006;SDS011;8186;57.652;11.968;2023-03-31T05:50:10;0.30;;;0.20;;
11006;SDS011;8186;57.652;11.968;2023-03-31T05:52:37;0.77;;;0.30;;
11006;SDS011;8186;57.652;11.968;2023-03-31T05:55:04;0.87;;;0.30;;
11006;SDS011;8186;57.652;11.968;2023-03-31T05:57:32;0.20;;;0.20;;
11006;SDS011;8186;57.652;11.968;2023-03-31T05:59:58;0.30;;;0.30;;
11006;SDS011;8186;57.652;11.968;2023-03-31T06:02:26;1.17;;;0.30;;
11006;SDS011;8186;57.652;11.968;2023-03-31T06:04:54;0.40;;;0.30;;
11006;SDS011;8186;57.652;11.968;2023-03-31T06:07:22;0.30;;;0.30;;
11006;SDS011;8186;57.652;11.968;2023-03-31T06:09:50;0.23;;;0.23;;
11006;SDS011;8186;57.652;11.968;2023-03-31T06:12:17;1.13;;;0.30;;
11006;SDS011;8186;57.652;11.968;2023-03-31T06:14:44;0.30;;;0.30;;
11006;SDS011;8186;57.652;11.968;2023-03-31T06:17:10;0.20;;;0.20;;
11006;SDS011;8186;57.652;11.968;2023-03-31T06:19:37;0.60;;;0.30;;
11006;SDS011;8186;57.652;11.968;2023-03-31T06:22:06;0.67;;;0.30;;
11006;SDS011;8186;57.652;11.968;2023-03-31T06:24:32;0.20;;;0.20;;
11006;SDS011;8186;57.652;11.968;2023-03-31T06:26:59;0.20;;;0.20;;
11006;SDS011;8186;57.652;11.968;2023-03-31T06:29:28;0.20;;;0.20;;
11006;SDS011;8186;57.652;11.968;2023-03-31T06:31:54;0.20;;;0.20;;
11006;SDS011;8186;57.652;11.968;2023-03-31T06:34:21;0.57;;;0.50;;
11006;SDS011;8186;57.652;11.968;2023-03-31T06:36:48;0.90;;;0.30;;
11006;SDS011;8186;57.652;11.968;2023-03-31T06:39:17;0.60;;;0.30;;
11006;SDS011;8186;57.652;11.968;2023-03-31T06:41:44;0.50;;;0.30;;
11006;SDS011;8186;57.652;11.968;2023-03-31T06:44:11;0.20;;;0.20;;
11006;SDS011;8186;57.652;11.968;2023-03-31T06:46:40;0.20;;;0.20;;
11006;SDS011;8186;57.652;11.968;2023-03-31T06:49:08;0.30;;;0.30;;
11006;SDS011;8186;57.652;11.968;2023-03-31T06:51:35;0.30;;;0.30;;
11006;SDS011;8186;57.652;11.968;2023-03-31T06:54:02;0.43;;;0.30;;
11006;SDS011;8186;57.652;11.968;2023-03-31T06:56:30;0.20;;;0.20;;
11006;SDS011;8186;57.652;11.968;2023-03-31T06:58:57;0.20;;;0.20;;
11006;SDS011;8186;57.652;11.968;2023-03-31T07:01:24;0.30;;;0.30;;
11006;SDS011;8186;57.652;11.968;2023-03-31T07:03:51;0.70;;;0.30;;
11006;SDS011;8186;57.652;11.968;2023-03-31T07:06:18;1.53;;;0.20;;
11006;SDS011;8186;57.652;11.968;2023-03-31T07:08:45;0.43;;;0.30;;
11006;SDS011;8186;57.652;11.968;2023-03-31T07:11:12;0.20;;;0.20;;
11006;SDS011;8186;57.652;11.968;2023-03-31T07:13:40;1.33;;;0.30;;
11006;SDS011;8186;57.652;11.968;2023-03-31T07:16:07;0.30;;;0.30;;
11006;SDS011;8186;57.652;11.968;2023-03-31T07:18:35;1.07;;;0.20;;
11006;SDS011;8186;57.652;11.968;2023-03-31T07:21:02;0.27;;;0.27;;
11006;SDS011;8186;57.652;11.968;2023-03-31T07:23:31;0.20;;;0.20;;
11006;SDS011;8186;57.652;11.968;2023-03-31T07:25:58;1.73;;;0.30;;
11006;SDS011;8186;57.652;11.968;2023-03-31T07:28:27;0.20;;;0.20;;
11006;SDS011;8186;57.652;11.968;2023-03-31T07:30:55;0.20;;;0.20;;
11006;SDS011;8186;57.652;11.968;2023-03-31T07:33:22;0.27;;;0.27;;
11006;SDS011;8186;57.652;11.968;2023-03-31T07:35:49;0.30;;;0.20;;
11006;SDS011;8186;57.652;11.968;2023-03-31T07:38:16;0.30;;;0.30;;
11006;SDS011;8186;57.652;11.968;2023-03-31T07:40:43;0.53;;;0.20;;
11006;SDS011;8186;57.652;11.968;2023-03-31T07:43:11;0.10;;;0.10;;
11006;SDS011;8186;57.652;11.968;2023-03-31T07:45:38;0.77;;;0.40;;
11006;SDS011;8186;57.652;11.968;2023-03-31T07:48:07;0.20;;;0.20;;
11006;SDS011;8186;57.652;11.968;2023-03-31T07:50:34;0.20;;;0.20;;
11006;SDS011;8186;57.652;11.968;2023-03-31T07:53:04;0.50;;;0.20;;
11006;SDS011;8186;57.652;11.968;2023-03-31T07:55:36;0.27;;;0.27;;
11006;SDS011;8186;57.652;11.968;2023-03-31T07:58:03;0.20;;;0.20;;
11006;SDS011;8186;57.652;11.968;2023-03-31T08:00:31;0.27;;;0.27;;
11006;SDS011;8186;57.652;11.968;2023-03-31T08:02:58;0.67;;;0.40;;
11006;SDS011;8186;57.652;11.968;2023-03-31T08:05:27;0.20;;;0.20;;
11006;SDS011;8186;57.652;11.968;2023-03-31T08:07:54;0.20;;;0.20;;
11006;SDS011;8186;57.652;11.968;2023-03-31T08:10:22;1.47;;;0.20;;
11006;SDS011;8186;57.652;11.968;2023-03-31T08:12:51;0.20;;;0.20;;
11006;SDS011;8186;57.652;11.968;2023-03-31T08:15:19;0.20;;;0.20;;
11006;SDS011;8186;57.652;11.968;2023-03-31T08:17:46;0.23;;;0.23;;
11006;SDS011;8186;57.652;11.968;2023-03-31T08:20:13;0.23;;;0.23;;
11006;SDS011;8186;57.652;11.968;2023-03-31T08:22:43;0.20;;;0.20;;
11006;SDS011;8186;57.652;11.968;2023-03-31T08:25:12;1.30;;;0.20;;
11006;SDS011;8186;57.652;11.968;2023-03-31T08:27:40;0.30;;;0.30;;
11006;SDS011;8186;57.652;11.968;2023-03-31T08:30:09;0.20;;;0.20;;
11006;SDS011;8186;57.652;11.968;2023-03-31T08:32:37;0.37;;;0.37;;
11006;SDS011;8186;57.652;11.968;2023-03-31T08:35:04;0.50;;;0.30;;
11006;SDS011;8186;57.652;11.968;2023-03-31T08:37:32;0.33;;;0.27;;
11006;SDS011;8186;57.652;11.968;2023-03-31T08:40:01;0.20;;;0.20;;
11006;SDS011;8186;57.652;11.968;2023-03-31T08:42:32;0.20;;;0.20;;
11006;SDS011;8186;57.652;11.968;2023-03-31T08:45:03;0.43;;;0.30;;
11006;SDS011;8186;57.652;11.968;2023-03-31T08:47:32;0.17;;;0.17;;
11006;SDS011;8186;57.652;11.968;2023-03-31T08:50:02;0.20;;;0.20;;
11006;SDS011;8186;57.652;11.968;2023-03-31T08:52:33;0.20;;;0.20;;
11006;SDS011;8186;57.652;11.968;2023-03-31T08:55:04;0.30;;;0.30;;
11006;SDS011;8186;57.652;11.968;2023-03-31T08:57:34;0.77;;;0.50;;
11006;SDS011;8186;57.652;11.968;2023-03-31T09:00:08;0.20;;;0.20;;
11006;SDS011;8186;57.652;11.968;2023-03-31T09:02:41;0.20;;;0.20;;
11006;SDS011;8186;57.652;11.968;2023-03-31T09:05:23;0.20;;;0.20;;
11006;SDS011;8186;57.652;11.968;2023-03-31T09:08:03;0.30;;;0.30;;
11006;SDS011;8186;57.652;11.968;2023-03-31T09:10:37;0.20;;;0.20;;
11006;SDS011;8186;57.652;11.968;2023-03-31T09:13:17;0.50;;;0.40;;
11006;SDS011;8186;57.652;11.968;2023-03-31T09:16:03;0.27;;;0.27;;
11006;SDS011;8186;57.652;11.968;2023-03-31T09:18:34;0.30;;;0.30;;
11006;SDS011;8186;57.652;11.968;2023-03-31T09:21:03;0.30;;;0.30;;
11006;SDS011;8186;57.652;11.968;2023-03-31T09:23:34;0.20;;;0.20;;
11006;SDS011;8186;57.652;11.968;2023-03-31T09:26:03;0.30;;;0.30;;
11006;SDS011;8186;57.652;11.968;2023-03-31T09:28:33;0.33;;;0.33;;
11006;SDS011;8186;57.652;11.968;2023-03-31T09:31:03;0.83;;;0.40;;
11006;SDS011;8186;57.652;11.968;2023-03-31T09:33:36;0.20;;;0.20;;
11006;SDS011;8186;57.652;11.968;2023-03-31T09:36:07;0.20;;;0.20;;
11006;SDS011;8186;57.652;11.968;2023-03-31T09:38:40;0.70;;;0.20;;
11006;SDS011;8186;57.652;11.968;2023-03-31T09:41:09;0.60;;;0.40;;
11006;SDS011;8186;57.652;11.968;2023-03-31T09:43:37;0.30;;;0.30;;
11006;SDS011;8186;57.652;11.968;2023-03-31T09:46:05;0.33;;;0.30;;
11006;SDS011;8186;57.652;11.968;2023-03-31T09:48:44;0.60;;;0.30;;
11006;SDS011;8186;57.652;11.968;2023-03-31T09:51:17;0.33;;;0.30;;
11006;SDS011;8186;57.652;11.968;2023-03-31T09:53:47;0.30;;;0.30;;
11006;SDS011;8186;57.652;11.968;2023-03-31T09:56:30;0.27;;;0.27;;
11006;SDS011;8186;57.652;11.968;2023-03-31T09:59:00;0.30;;;0.30;;
11006;SDS011;8186;57.652;11.968;2023-03-31T10:01:27;0.30;;;0.30;;
11006;SDS011;8186;57.652;11.968;2023-03-31T10:03:54;0.40;;;0.40;;
11006;SDS011;8186;57.652;11.968;2023-03-31T10:06:22;1.00;;;0.40;;
11006;SDS011;8186;57.652;11.968;2023-03-31T10:08:51;0.30;;;0.30;;
11006;SDS011;8186;57.652;11.968;2023-03-31T10:11:20;0.30;;;0.30;;
11006;SDS011;8186;57.652;11.968;2023-03-31T10:13:51;0.40;;;0.40;;
11006;SDS011;8186;57.652;11.968;2023-03-31T10:16:26;0.40;;;0.40;;
11006;SDS011;8186;57.652;11.968;2023-03-31T10:18:54;0.40;;;0.40;;
11006;SDS011;8186;57.652;11.968;2023-03-31T10:21:23;0.40;;;0.40;;
11006;SDS011;8186;57.652;11.968;2023-03-31T10:23:51;0.50;;;0.50;;
11006;SDS011;8186;57.652;11.968;2023-03-31T10:26:19;0.40;;;0.40;;
11006;SDS011;8186;57.652;11.968;2023-03-31T10:28:49;0.30;;;0.30;;
11006;SDS011;8186;57.652;11.968;2023-03-31T10:31:17;0.30;;;0.30;;
11006;SDS011;8186;57.652;11.968;2023-03-31T10:33:45;1.23;;;0.40;;
11006;SDS011;8186;57.652;11.968;2023-03-31T10:36:15;0.40;;;0.40;;
11006;SDS011;8186;57.652;11.968;2023-03-31T10:38:46;0.37;;;0.37;;
11006;SDS011;8186;57.652;11.968;2023-03-31T10:41:16;0.40;;;0.40;;
11006;SDS011;8186;57.652;11.968;2023-03-31T10:43:46;0.60;;;0.60;;
11006;SDS011;8186;57.652;11.968;2023-03-31T10:46:16;0.50;;;0.40;;
11006;SDS011;8186;57.652;11.968;2023-03-31T10:48:43;3.03;;;1.40;;
11006;SDS011;8186;57.652;11.968;2023-03-31T10:51:11;3.50;;;1.57;;
11006;SDS011;8186;57.652;11.968;2023-03-31T10:53:42;0.60;;;0.50;;
11006;SDS011;8186;57.652;11.968;2023-03-31T11:02:00;0.40;;;0.40;;
11006;SDS011;8186;57.652;11.968;2023-03-31T11:04:45;0.63;;;0.40;;
11006;SDS011;8186;57.652;11.968;2023-03-31T11:07:20;0.63;;;0.43;;
11006;SDS011;8186;57.652;11.968;2023-03-31T11:09:54;0.30;;;0.30;;
11006;SDS011;8186;57.652;11.968;2023-03-31T11:12:30;0.50;;;0.50;;
11006;SDS011;8186;57.652;11.968;2023-03-31T11:15:04;0.30;;;0.30;;
11006;SDS011;8186;57.652;11.968;2023-03-31T11:17:42;0.87;;;0.60;;
11006;SDS011;8186;57.652;11.968;2023-03-31T11:20:18;0.87;;;0.50;;
11006;SDS011;8186;57.652;11.968;2023-03-31T11:22:51;0.50;;;0.50;;
11006;SDS011;8186;57.652;11.968;2023-03-31T11:25:26;1.70;;;0.47;;
11006;SDS011;8186;57.652;11.968;2023-03-31T11:28:03;0.60;;;0.50;;
11006;SDS011;8186;57.652;11.968;2023-03-31T11:30:48;0.50;;;0.50;;
11006;SDS011;8186;57.652;11.968;2023-03-31T11:33:24;0.50;;;0.50;;
11006;SDS011;8186;57.652;11.968;2023-03-31T11:36:03;0.70;;;0.50;;
11006;SDS011;8186;57.652;11.968;2023-03-31T11:41:28;0.67;;;0.50;;
11006;SDS011;8186;57.652;11.968;2023-03-31T11:43:59;0.70;;;0.50;;
11006;SDS011;8186;57.652;11.968;2023-03-31T11:46:31;0.53;;;0.53;;
11006;SDS011;8186;57.652;11.968;2023-03-31T11:49:05;0.50;;;0.50;;
11006;SDS011;8186;57.652;11.968;2023-03-31T11:51:38;0.43;;;0.43;;
11006;SDS011;8186;57.652;11.968;2023-03-31T11:54:09;0.70;;;0.50;;
11006;SDS011;8186;57.652;11.968;2023-03-31T11:56:41;0.43;;;0.43;;
11006;SDS011;8186;57.652;11.968;2023-03-31T11:59:08;0.50;;;0.50;;
11006;SDS011;8186;57.652;11.968;2023-03-31T12:01:42;1.23;;;0.70;;
11006;SDS011;8186;57.652;11.968;2023-03-31T12:04:14;0.60;;;0.40;;
11006;SDS011;8186;57.652;11.968;2023-03-31T12:06:48;0.60;;;0.60;;
11006;SDS011;8186;57.652;11.968;2023-03-31T12:09:18;0.70;;;0.70;;
11006;SDS011;8186;57.652;11.968;2023-03-31T12:11:51;0.40;;;0.40;;
11006;SDS011;8186;57.652;11.968;2023-03-31T12:14:23;0.60;;;0.60;;
11006;SDS011;8186;57.652;11.968;2023-03-31T12:16:54;0.67;;;0.50;;
11006;SDS011;8186;57.652;11.968;2023-03-31T12:19:25;0.67;;;0.50;;
11006;SDS011;8186;57.652;11.968;2023-03-31T12:21:54;0.50;;;0.50;;
11006;SDS011;8186;57.652;11.968;2023-03-31T12:24:24;0.57;;;0.50;;
11006;SDS011;8186;57.652;11.968;2023-03-31T12:26:54;0.63;;;0.60;;
11006;SDS011;8186;57.652;11.968;2023-03-31T12:29:27;0.77;;;0.63;;
11006;SDS011;8186;57.652;11.968;2023-03-31T12:31:57;0.70;;;0.70;;
11006;SDS011;8186;57.652;11.968;2023-03-31T12:34:26;0.77;;;0.77;;
11006;SDS011;8186;57.652;11.968;2023-03-31T12:36:59;0.43;;;0.43;;
11006;SDS011;8186;57.652;11.968;2023-03-31T12:39:37;0.60;;;0.50;;
11006;SDS011;8186;57.652;11.968;2023-03-31T12:42:14;0.60;;;0.60;;
11006;SDS011;8186;57.652;11.968;2023-03-31T12:44:58;0.97;;;0.53;;
11006;SDS011;8186;57.652;11.968;2023-03-31T12:47:42;0.50;;;0.50;;
11006;SDS011;8186;57.652;11.968;2023-03-31T12:50:19;0.57;;;0.57;;
11006;SDS011;8186;57.652;11.968;2023-03-31T12:53:10;0.57;;;0.57;;
11006;SDS011;8186;57.652;11.968;2023-03-31T12:55:42;0.50;;;0.50;;
11006;SDS011;8186;57.652;11.968;2023-03-31T13:01:08;0.40;;;0.40;;
11006;SDS011;8186;57.652;11.968;2023-03-31T13:06:47;0.60;;;0.60;;
11006;SDS011;8186;57.652;11.968;2023-03-31T13:12:18;0.70;;;0.70;;
11006;SDS011;8186;57.652;11.968;2023-03-31T13:14:47;0.60;;;0.60;;
11006;SDS011;8186;57.652;11.968;2023-03-31T13:20:32;0.50;;;0.50;;
11006;SDS011;8186;57.652;11.968;2023-03-31T13:23:08;0.67;;;0.63;;
11006;SDS011;8186;57.652;11.968;2023-03-31T13:25:44;0.70;;;0.70;;
11006;SDS011;8186;57.652;11.968;2023-03-31T13:28:26;0.60;;;0.60;;
11006;SDS011;8186;57.652;11.968;2023-03-31T13:30:58;0.80;;;0.80;;
11006;SDS011;8186;57.652;11.968;2023-03-31T13:33:27;1.67;;;0.97;;
11006;SDS011;8186;57.652;11.968;2023-03-31T13:36:14;1.00;;;0.70;;
11006;SDS011;8186;57.652;11.968;2023-03-31T13:38:51;0.63;;;0.63;;
11006;SDS011;8186;57.652;11.968;2023-03-31T13:41:34;1.17;;;0.70;;
11006;SDS011;8186;57.652;11.968;2023-03-31T13:44:23;0.93;;;0.93;;
11006;SDS011;8186;57.652;11.968;2023-03-31T13:47:04;2.20;;;0.80;;
11006;SDS011;8186;57.652;11.968;2023-03-31T13:52:43;0.90;;;0.90;;
11006;SDS011;8186;57.652;11.968;2023-03-31T13:55:25;0.90;;;0.90;;
11006;SDS011;8186;57.652;11.968;2023-03-31T14:01:02;0.87;;;0.87;;
11006;SDS011;8186;57.652;11.968;2023-03-31T14:03:44;0.83;;;0.80;;
11006;SDS011;8186;57.652;11.968;2023-03-31T14:06:19;1.20;;;0.70;;
11006;SDS011;8186;57.652;11.968;2023-03-31T14:08:49;1.33;;;0.93;;
11006;SDS011;8186;57.652;11.968;2023-03-31T14:11:22;0.90;;;0.90;;
11006;SDS011;8186;57.652;11.968;2023-03-31T14:14:00;0.80;;;0.80;;
11006;SDS011;8186;57.652;11.968;2023-03-31T14:16:28;0.90;;;0.90;;
11006;SDS011;8186;57.652;11.968;2023-03-31T14:19:00;0.90;;;0.90;;
11006;SDS011;8186;57.652;11.968;2023-03-31T14:21:53;0.80;;;0.80;;
11006;SDS011;8186;57.652;11.968;2023-03-31T14:24:26;1.20;;;0.90;;
11006;SDS011;8186;57.652;11.968;2023-03-31T14:27:01;0.60;;;0.60;;
11006;SDS011;8186;57.652;11.968;2023-03-31T14:29:34;0.93;;;0.90;;
11006;SDS011;8186;57.652;11.968;2023-03-31T14:32:05;1.00;;;0.90;;
11006;SDS011;8186;57.652;11.968;2023-03-31T14:34:41;1.00;;;1.00;;
11006;SDS011;8186;57.652;11.968;2023-03-31T14:37:17;0.97;;;0.90;;
11006;SDS011;8186;57.652;11.968;2023-03-31T14:39:45;0.90;;;0.90;;
11006;SDS011;8186;57.652;11.968;2023-03-31T14:42:16;0.80;;;0.80;;
11006;SDS011;8186;57.652;11.968;2023-03-31T14:44:44;0.80;;;0.80;;
11006;SDS011;8186;57.652;11.968;2023-03-31T14:47:12;0.83;;;0.83;;
11006;SDS011;8186;57.652;11.968;2023-03-31T14:49:40;0.80;;;0.80;;
11006;SDS011;8186;57.652;11.968;2023-03-31T14:52:12;0.80;;;0.80;;
11006;SDS011;8186;57.652;11.968;2023-03-31T14:54:40;0.80;;;0.80;;
11006;SDS011;8186;57.652;11.968;2023-03-31T14:57:12;1.63;;;1.00;;
11006;SDS011;8186;57.652;11.968;2023-03-31T14:59:42;0.90;;;0.90;;
11006;SDS011;8186;57.652;11.968;2023-03-31T15:02:11;0.90;;;0.90;;
11006;SDS011;8186;57.652;11.968;2023-03-31T15:04:40;0.90;;;0.90;;
11006;SDS011;8186;57.652;11.968;2023-03-31T15:07:09;0.80;;;0.80;;
11006;SDS011;8186;57.652;11.968;2023-03-31T15:09:38;0.70;;;0.70;;
11006;SDS011;8186;57.652;11.968;2023-03-31T15:12:06;0.80;;;0.80;;
11006;SDS011;8186;57.652;11.968;2023-03-31T15:14:38;1.57;;;1.20;;
11006;SDS011;8186;57.652;11.968;2023-03-31T15:17:14;1.33;;;1.10;;
11006;SDS011;8186;57.652;11.968;2023-03-31T15:19:43;1.10;;;1.00;;
11006;SDS011;8186;57.652;11.968;2023-03-31T15:22:10;0.90;;;0.90;;
11006;SDS011;8186;57.652;11.968;2023-03-31T15:24:40;1.10;;;0.90;;
11006;SDS011;8186;57.652;11.968;2023-03-31T15:27:07;0.90;;;0.90;;
11006;SDS011;8186;57.652;11.968;2023-03-31T15:29:40;1.20;;;1.00;;
11006;SDS011;8186;57.652;11.968;2023-03-31T15:32:11;1.37;;;1.27;;
11006;SDS011;8186;57.652;11.968;2023-03-31T15:34:43;1.13;;;1.03;;
11006;SDS011;8186;57.652;11.968;2023-03-31T15:37:10;1.10;;;1.00;;